Time;durP1;ratioP1;P1;durP2;ratioP2;P2;SDS_P1;SDS_P2;PMS_P1;PMS_P2;Temp;Humidity;BMP_temperature;BMP_pressure;BME280_temperature;BME280_humidity;BME280_pressure;Samples;Min_cycle;Max_cycle;Signal;HPM_P1;HPM_P2
2024/01/19 00:01:26;;;;;;;26.97;16.27;;;;;;;;;;5025626;28;20203;-80
2024/01/19 00:03:52;;;;;;;23.93;16.23;;;;;;;;;;5027107;28;20249;-81
2024/01/19 00:06:18;;;;;;;29.70;19.87;;;;;;;;;;5021979;28;20549;-80
2024/01/19 00:08:44;;;;;;;28.30;17.87;;;;;;;;;;5031011;28;20726;-80
2024/01/19 00:11:14;;;;;;;29.80;17.97;;;;;;;;;;5021384;28;20178;-80
2024/01/19 00:13:44;;;;;;;30.80;18.97;;;;;;;;;;5024523;28;20429;-81
2024/01/19 00:16:10;;;;;;;30.57;18.87;;;;;;;;;;5030595;28;20503;-80
2024/01/19 00:18:36;;;;;;;33.60;20.17;;;;;;;;;;5024074;28;20508;-80
2024/01/19 00:21:03;;;;;;;36.57;21.23;;;;;;;;;;5028318;28;20425;-80
2024/01/19 00:23:29;;;;;;;32.40;20.47;;;;;;;;;;5029892;28;20277;-80
2024/01/19 00:25:55;;;;;;;35.77;20.63;;;;;;;;;;5020146;28;20492;-80
2024/01/19 00:28:21;;;;;;;39.37;21.40;;;;;;;;;;5011535;28;20183;-80
2024/01/19 00:30:47;;;;;;;34.53;21.87;;;;;;;;;;5019932;28;20266;-80
2024/01/19 00:33:13;;;;;;;36.10;22.13;;;;;;;;;;5018291;28;20658;-81
2024/01/19 00:35:40;;;;;;;36.20;22.23;;;;;;;;;;5029556;28;20644;-80
2024/01/19 00:38:06;;;;;;;33.33;20.70;;;;;;;;;;5025813;28;20183;-80
2024/01/19 00:40:32;;;;;;;38.73;23.00;;;;;;;;;;5027494;28;20896;-80
2024/01/19 00:42:58;;;;;;;47.57;25.00;;;;;;;;;;5030227;28;20641;-81
2024/01/19 00:45:24;;;;;;;39.33;23.80;;;;;;;;;;5030567;28;20194;-81
2024/01/19 00:47:50;;;;;;;38.73;23.80;;;;;;;;;;5024242;28;20328;-80
2024/01/19 00:50:16;;;;;;;36.03;22.43;;;;;;;;;;5005549;28;20183;-81
2024/01/19 00:52:43;;;;;;;37.73;22.97;;;;;;;;;;5024404;28;20434;-80
2024/01/19 00:55:10;;;;;;;40.67;23.67;;;;;;;;;;5025041;28;20678;-81
2024/01/19 00:57:37;;;;;;;40.07;23.60;;;;;;;;;;5027507;28;20416;-80
2024/01/19 01:00:04;;;;;;;40.70;23.37;;;;;;;;;;5017788;28;21857;-80
2024/01/19 01:02:30;;;;;;;37.80;22.83;;;;;;;;;;5017340;28;20186;-80
2024/01/19 01:04:56;;;;;;;34.00;21.23;;;;;;;;;;5013007;28;20252;-80
2024/01/19 01:07:22;;;;;;;39.90;22.40;;;;;;;;;;5012820;28;20193;-81
2024/01/19 01:09:49;;;;;;;36.87;22.50;;;;;;;;;;4999434;28;20190;-80
2024/01/19 01:12:15;;;;;;;36.47;22.53;;;;;;;;;;5012149;28;20328;-80
2024/01/19 01:14:41;;;;;;;35.23;21.80;;;;;;;;;;5024849;28;20312;-80
2024/01/19 01:17:07;;;;;;;37.50;23.23;;;;;;;;;;5027615;28;20198;-80
2024/01/19 01:19:33;;;;;;;39.87;23.30;;;;;;;;;;5026304;28;20186;-80
2024/01/19 01:22:00;;;;;;;37.87;22.30;;;;;;;;;;5021067;28;20198;-80
2024/01/19 01:24:26;;;;;;;40.37;24.83;;;;;;;;;;5028628;28;20218;-80
2024/01/19 01:26:52;;;;;;;39.63;22.23;;;;;;;;;;5025046;28;20190;-80
2024/01/19 01:29:18;;;;;;;37.90;23.17;;;;;;;;;;5026093;28;20197;-80
2024/01/19 01:31:44;;;;;;;38.80;22.67;;;;;;;;;;5013113;28;20291;-80
2024/01/19 01:34:10;;;;;;;37.23;21.43;;;;;;;;;;5020002;28;20209;-80
2024/01/19 01:36:37;;;;;;;38.17;22.97;;;;;;;;;;5031849;28;20473;-80
2024/01/19 01:39:03;;;;;;;37.57;22.00;;;;;;;;;;5013374;28;20189;-81
2024/01/19 01:41:29;;;;;;;42.40;23.43;;;;;;;;;;5028102;28;20580;-80
2024/01/19 01:43:55;;;;;;;36.20;22.33;;;;;;;;;;5012660;28;20703;-81
2024/01/19 01:46:21;;;;;;;39.37;22.40;;;;;;;;;;5011089;28;20258;-81
2024/01/19 01:48:47;;;;;;;38.03;22.33;;;;;;;;;;5030716;28;20801;-81
2024/01/19 01:51:14;;;;;;;35.87;22.20;;;;;;;;;;5030195;28;20621;-80
2024/01/19 01:53:40;;;;;;;36.27;23.13;;;;;;;;;;5007706;28;20207;-80
2024/01/19 01:56:06;;;;;;;40.97;25.63;;;;;;;;;;5007035;28;20198;-80
2024/01/19 01:58:33;;;;;;;40.77;23.70;;;;;;;;;;5032197;28;20191;-80
2024/01/19 02:00:59;;;;;;;42.43;24.07;;;;;;;;;;5029352;28;20195;-80
2024/01/19 02:03:26;;;;;;;38.43;23.33;;;;;;;;;;5033608;28;20226;-80
2024/01/19 02:05:52;;;;;;;40.73;24.27;;;;;;;;;;5027346;28;20199;-81
2024/01/19 02:08:18;;;;;;;39.33;23.07;;;;;;;;;;5025578;28;20191;-80
2024/01/19 02:10:44;;;;;;;46.43;23.87;;;;;;;;;;5021466;28;20618;-80
2024/01/19 02:13:10;;;;;;;38.43;23.50;;;;;;;;;;5026997;28;20440;-81
2024/01/19 02:15:37;;;;;;;36.97;21.43;;;;;;;;;;5005481;28;20573;-81
2024/01/19 02:18:04;;;;;;;38.87;22.37;;;;;;;;;;5028414;28;20219;-81
2024/01/19 02:20:31;;;;;;;37.97;22.73;;;;;;;;;;5026947;28;20190;-81
2024/01/19 02:22:57;;;;;;;39.37;23.87;;;;;;;;;;5029237;28;20686;-80
2024/01/19 02:25:23;;;;;;;41.53;24.83;;;;;;;;;;5030687;28;20375;-81
2024/01/19 02:27:49;;;;;;;37.50;22.43;;;;;;;;;;5010797;28;20191;-80
2024/01/19 02:30:15;;;;;;;40.67;24.53;;;;;;;;;;5012919;28;20202;-82
2024/01/19 02:32:42;;;;;;;38.30;23.10;;;;;;;;;;5012279;28;20183;-80
2024/01/19 02:35:08;;;;;;;35.87;22.00;;;;;;;;;;5024361;28;20206;-80
2024/01/19 02:37:34;;;;;;;40.23;22.43;;;;;;;;;;5029344;28;20182;-80
2024/01/19 02:40:00;;;;;;;36.30;21.87;;;;;;;;;;5028430;28;20548;-81
2024/01/19 02:42:26;;;;;;;40.37;23.57;;;;;;;;;;5032429;28;20261;-80
2024/01/19 02:44:52;;;;;;;35.23;22.30;;;;;;;;;;5034558;28;20289;-80
2024/01/19 02:47:19;;;;;;;39.80;23.23;;;;;;;;;;5034915;28;20222;-81
2024/01/19 02:49:45;;;;;;;34.77;21.47;;;;;;;;;;5032370;28;20275;-81
2024/01/19 02:52:11;;;;;;;36.90;22.70;;;;;;;;;;5032843;28;20197;-80
2024/01/19 02:54:37;;;;;;;37.43;22.03;;;;;;;;;;5010392;28;20213;-81
2024/01/19 02:57:03;;;;;;;34.63;21.00;;;;;;;;;;5034274;28;20205;-80
2024/01/19 02:59:29;;;;;;;35.77;21.37;;;;;;;;;;5032353;28;20320;-81
2024/01/19 03:01:55;;;;;;;34.30;20.63;;;;;;;;;;5033111;28;20663;-81
2024/01/19 03:04:21;;;;;;;34.90;20.97;;;;;;;;;;5032068;28;20249;-81
2024/01/19 03:06:47;;;;;;;39.87;22.17;;;;;;;;;;5032590;28;20190;-81
2024/01/19 03:09:14;;;;;;;38.93;22.40;;;;;;;;;;5032992;28;20182;-81
2024/01/19 03:11:40;;;;;;;37.30;22.50;;;;;;;;;;5031018;28;20230;-81
2024/01/19 03:14:06;;;;;;;35.77;21.90;;;;;;;;;;5030831;28;20272;-81
2024/01/19 03:16:32;;;;;;;39.00;21.87;;;;;;;;;;5030711;28;20189;-80
2024/01/19 03:19:00;;;;;;;37.60;21.30;;;;;;;;;;5033713;28;20645;-81
2024/01/19 03:21:27;;;;;;;35.47;20.90;;;;;;;;;;5022713;28;20278;-80
2024/01/19 03:23:53;;;;;;;40.33;22.53;;;;;;;;;;5035168;28;20210;-81
2024/01/19 03:26:19;;;;;;;40.70;22.90;;;;;;;;;;5014866;28;20183;-80
2024/01/19 03:28:45;;;;;;;42.10;23.90;;;;;;;;;;5031737;28;20662;-81
2024/01/19 03:31:11;;;;;;;34.10;20.50;;;;;;;;;;5018296;28;20309;-80
2024/01/19 03:33:37;;;;;;;38.13;21.27;;;;;;;;;;5028271;28;20749;-80
2024/01/19 03:36:04;;;;;;;35.43;20.97;;;;;;;;;;5015852;28;20452;-81
2024/01/19 03:38:31;;;;;;;38.97;21.23;;;;;;;;;;5014485;28;20198;-80
2024/01/19 03:40:57;;;;;;;38.30;21.97;;;;;;;;;;5030100;28;20659;-80
2024/01/19 03:43:24;;;;;;;38.90;22.80;;;;;;;;;;5034491;28;20480;-80
2024/01/19 03:45:50;;;;;;;37.40;22.93;;;;;;;;;;5026558;28;20199;-80
2024/01/19 03:48:16;;;;;;;34.90;21.73;;;;;;;;;;5031848;28;20178;-80
2024/01/19 03:50:42;;;;;;;40.93;22.23;;;;;;;;;;5030584;28;20182;-81
2024/01/19 03:53:08;;;;;;;34.67;22.33;;;;;;;;;;5030799;28;20674;-81
2024/01/19 03:55:35;;;;;;;37.20;22.50;;;;;;;;;;5030012;28;20268;-80
2024/01/19 03:58:01;;;;;;;41.50;24.30;;;;;;;;;;5032744;28;20437;-81
2024/01/19 04:00:27;;;;;;;41.33;23.83;;;;;;;;;;4994225;28;20213;-81
2024/01/19 04:02:53;;;;;;;35.07;22.27;;;;;;;;;;5021519;28;20391;-81
2024/01/19 04:05:19;;;;;;;36.80;22.40;;;;;;;;;;5030920;28;20317;-81
2024/01/19 04:07:46;;;;;;;41.47;23.50;;;;;;;;;;5032591;28;20206;-82
2024/01/19 04:10:12;;;;;;;37.87;22.70;;;;;;;;;;5031022;28;20525;-80
2024/01/19 04:12:38;;;;;;;42.13;24.13;;;;;;;;;;5013269;28;20187;-80
2024/01/19 04:15:04;;;;;;;42.40;24.37;;;;;;;;;;5029802;28;20441;-80
2024/01/19 04:17:30;;;;;;;44.53;25.47;;;;;;;;;;5027939;28;20242;-82
2024/01/19 04:19:57;;;;;;;39.20;22.77;;;;;;;;;;5028635;28;20197;-81
2024/01/19 04:22:23;;;;;;;43.17;25.20;;;;;;;;;;5027904;28;20270;-81
2024/01/19 04:24:49;;;;;;;41.37;24.30;;;;;;;;;;5009496;28;20663;-81
2024/01/19 04:27:15;;;;;;;37.97;23.40;;;;;;;;;;5006048;28;20195;-81
2024/01/19 04:29:41;;;;;;;41.80;24.73;;;;;;;;;;5028023;28;20445;-80
2024/01/19 04:32:07;;;;;;;45.03;25.33;;;;;;;;;;5031575;28;20422;-81
2024/01/19 04:34:33;;;;;;;40.20;23.43;;;;;;;;;;5013337;28;20226;-81
2024/01/19 04:37:00;;;;;;;41.97;24.80;;;;;;;;;;5015939;28;20477;-80
2024/01/19 04:39:26;;;;;;;40.57;24.40;;;;;;;;;;5030922;28;20183;-81
2024/01/19 04:41:52;;;;;;;40.90;23.60;;;;;;;;;;5034259;28;20193;-81
2024/01/19 04:44:18;;;;;;;42.07;24.13;;;;;;;;;;5015053;28;20504;-81
2024/01/19 04:46:44;;;;;;;40.90;24.80;;;;;;;;;;5030920;28;20363;-81
2024/01/19 04:49:10;;;;;;;43.60;24.70;;;;;;;;;;5029205;28;20658;-81
2024/01/19 04:51:36;;;;;;;44.67;26.63;;;;;;;;;;5028341;28;20191;-81
2024/01/19 04:54:03;;;;;;;45.70;26.70;;;;;;;;;;5029400;28;20221;-80
2024/01/19 04:56:29;;;;;;;44.07;25.50;;;;;;;;;;5029655;28;20221;-81
2024/01/19 04:58:55;;;;;;;42.93;25.40;;;;;;;;;;5034052;28;20444;-81
2024/01/19 05:01:21;;;;;;;43.77;26.57;;;;;;;;;;5025677;28;20206;-81
2024/01/19 05:03:47;;;;;;;43.50;25.63;;;;;;;;;;5029755;28;20617;-81
2024/01/19 05:06:14;;;;;;;51.83;26.17;;;;;;;;;;4992270;28;20175;-81
2024/01/19 05:08:40;;;;;;;44.30;24.93;;;;;;;;;;5028657;28;20233;-81
2024/01/19 05:11:06;;;;;;;44.13;26.20;;;;;;;;;;5029384;28;20211;-80
2024/01/19 05:13:33;;;;;;;50.77;28.10;;;;;;;;;;5030205;28;20433;-80
2024/01/19 05:15:59;;;;;;;46.17;28.87;;;;;;;;;;5005196;28;20226;-81
2024/01/19 05:18:25;;;;;;;50.33;29.23;;;;;;;;;;5020240;28;20196;-81
2024/01/19 05:20:51;;;;;;;45.90;27.23;;;;;;;;;;5025465;28;20244;-81
2024/01/19 05:23:17;;;;;;;45.80;26.90;;;;;;;;;;5030597;28;20280;-81
2024/01/19 05:25:43;;;;;;;43.20;27.30;;;;;;;;;;5032111;28;20215;-81
2024/01/19 05:28:09;;;;;;;44.07;25.60;;;;;;;;;;5034364;28;20174;-81
2024/01/19 05:30:35;;;;;;;43.33;25.43;;;;;;;;;;5031136;28;20762;-80
2024/01/19 05:33:01;;;;;;;44.53;25.40;;;;;;;;;;5024585;28;20235;-81
2024/01/19 05:35:28;;;;;;;36.07;22.47;;;;;;;;;;5003458;28;20218;-81
2024/01/19 05:37:54;;;;;;;41.70;24.80;;;;;;;;;;5013380;28;20214;-81
2024/01/19 05:40:20;;;;;;;44.63;24.47;;;;;;;;;;5029087;28;20545;-81
2024/01/19 05:42:46;;;;;;;41.47;23.57;;;;;;;;;;5028583;28;20618;-80
2024/01/19 05:45:13;;;;;;;39.37;23.87;;;;;;;;;;5014063;28;20305;-81
2024/01/19 05:47:40;;;;;;;44.43;23.93;;;;;;;;;;5030322;28;20205;-80
2024/01/19 05:50:06;;;;;;;44.07;24.63;;;;;;;;;;5027094;28;20262;-81
2024/01/19 05:52:32;;;;;;;39.10;23.63;;;;;;;;;;5012510;28;20186;-81
2024/01/19 05:54:59;;;;;;;41.70;24.40;;;;;;;;;;5021872;28;20249;-81
2024/01/19 05:57:25;;;;;;;39.67;24.30;;;;;;;;;;5008705;28;20186;-80
2024/01/19 05:59:51;;;;;;;37.53;23.00;;;;;;;;;;5030039;28;20206;-80
2024/01/19 06:02:20;;;;;;;38.23;23.63;;;;;;;;;;5029797;28;20285;-81
2024/01/19 06:04:46;;;;;;;41.53;24.50;;;;;;;;;;5010939;28;20214;-81
2024/01/19 06:07:12;;;;;;;39.97;23.63;;;;;;;;;;5006114;28;20270;-81
2024/01/19 06:09:39;;;;;;;41.73;23.73;;;;;;;;;;5028414;28;20497;-80
2024/01/19 06:12:05;;;;;;;38.80;24.13;;;;;;;;;;5029404;28;20642;-80
2024/01/19 06:14:31;;;;;;;39.90;24.03;;;;;;;;;;5030506;28;20214;-80
2024/01/19 06:16:58;;;;;;;34.70;20.57;;;;;;;;;;5031336;28;20277;-81
2024/01/19 06:19:24;;;;;;;35.83;20.57;;;;;;;;;;5030591;28;20598;-80
2024/01/19 06:21:50;;;;;;;36.57;21.00;;;;;;;;;;5028142;28;20433;-81
2024/01/19 06:24:16;;;;;;;37.13;21.97;;;;;;;;;;5012073;28;20229;-81
2024/01/19 06:26:44;;;;;;;32.40;21.60;;;;;;;;;;5022968;28;20465;-81
2024/01/19 06:29:10;;;;;;;37.23;21.87;;;;;;;;;;5027919;28;20448;-81
2024/01/19 06:31:42;;;;;;;38.33;22.57;;;;;;;;;;5008802;28;20437;-81
2024/01/19 06:34:08;;;;;;;36.50;22.60;;;;;;;;;;5004944;28;20501;-81
2024/01/19 06:36:34;;;;;;;41.17;22.33;;;;;;;;;;5024104;28;20186;-81
2024/01/19 06:39:00;;;;;;;41.07;22.70;;;;;;;;;;5020137;28;20554;-80
2024/01/19 06:41:27;;;;;;;38.87;21.27;;;;;;;;;;5030697;28;20248;-80
2024/01/19 06:43:53;;;;;;;36.87;21.17;;;;;;;;;;5024851;28;20678;-80
2024/01/19 06:46:20;;;;;;;38.50;21.67;;;;;;;;;;5029250;28;20421;-80
2024/01/19 06:48:46;;;;;;;40.90;22.73;;;;;;;;;;5030663;28;20428;-80
2024/01/19 06:51:24;;;;;;;38.37;21.70;;;;;;;;;;5028892;28;20437;-80
2024/01/19 06:53:51;;;;;;;37.67;21.73;;;;;;;;;;5010655;28;20876;-80
2024/01/19 06:56:17;;;;;;;43.77;23.23;;;;;;;;;;5029891;28;20429;-80
2024/01/19 06:58:44;;;;;;;44.07;25.00;;;;;;;;;;5001279;28;20717;-81
2024/01/19 07:01:10;;;;;;;31.03;20.10;;;;;;;;;;5023393;28;20456;-83
2024/01/19 07:03:36;;;;;;;26.20;17.23;;;;;;;;;;5012980;28;20263;-82
2024/01/19 07:06:03;;;;;;;23.10;16.97;;;;;;;;;;5004137;28;20469;-81
2024/01/19 07:08:29;;;;;;;23.57;16.17;;;;;;;;;;5023549;28;20878;-81
2024/01/19 07:10:55;;;;;;;27.03;18.10;;;;;;;;;;5035711;28;20437;-83
2024/01/19 07:13:21;;;;;;;26.07;17.03;;;;;;;;;;4997488;28;20448;-82
2024/01/19 07:15:47;;;;;;;34.27;19.77;;;;;;;;;;5002240;28;20553;-84
2024/01/19 07:18:13;;;;;;;39.07;23.23;;;;;;;;;;5025317;28;20440;-77
2024/01/19 07:20:40;;;;;;;49.77;26.73;;;;;;;;;;5025748;28;20434;-85
2024/01/19 07:23:06;;;;;;;50.47;27.60;;;;;;;;;;5027228;28;20469;-84
2024/01/19 07:25:32;;;;;;;50.87;29.87;;;;;;;;;;4995046;28;21119;-82
2024/01/19 07:27:59;;;;;;;34.93;21.73;;;;;;;;;;5025917;28;20273;-79
2024/01/19 07:30:25;;;;;;;34.63;21.83;;;;;;;;;;5026533;28;20186;-84
2024/01/19 07:32:51;;;;;;;35.60;20.97;;;;;;;;;;5012728;28;20455;-83
2024/01/19 07:35:19;;;;;;;34.67;21.53;;;;;;;;;;5028670;28;20484;-80
2024/01/19 07:37:46;;;;;;;32.50;20.10;;;;;;;;;;5027231;28;20430;-84
2024/01/19 07:40:13;;;;;;;31.17;19.00;;;;;;;;;;5013247;28;20956;-84
2024/01/19 07:42:39;;;;;;;33.63;21.07;;;;;;;;;;4999156;28;20445;-84
2024/01/19 07:45:05;;;;;;;30.43;19.83;;;;;;;;;;5024418;28;20448;-85
2024/01/19 07:47:34;;;;;;;37.77;22.17;;;;;;;;;;5014545;28;20798;-90
2024/01/19 07:50:00;;;;;;;33.17;18.97;;;;;;;;;;5005343;28;20537;-89
2024/01/19 07:52:26;;;;;;;23.17;16.17;;;;;;;;;;5011260;28;20495;-89
2024/01/19 07:54:53;;;;;;;23.43;15.80;;;;;;;;;;4998106;28;20485;-89
2024/01/19 07:57:19;;;;;;;22.53;15.70;;;;;;;;;;4999572;28;20929;-89
2024/01/19 07:59:45;;;;;;;26.87;17.33;;;;;;;;;;5005231;28;20438;-75
2024/01/19 08:02:11;;;;;;;21.80;15.67;;;;;;;;;;5029023;28;20429;-79
2024/01/19 08:04:38;;;;;;;26.83;16.57;;;;;;;;;;5000570;28;20488;-79
2024/01/19 08:07:04;;;;;;;28.63;18.37;;;;;;;;;;5021316;28;20441;-79
2024/01/19 08:09:30;;;;;;;23.37;16.07;;;;;;;;;;5023824;28;20438;-79
2024/01/19 08:11:57;;;;;;;29.83;18.83;;;;;;;;;;5009632;28;20512;-79
2024/01/19 08:14:23;;;;;;;32.30;19.20;;;;;;;;;;5025330;28;20514;-79
2024/01/19 08:16:49;;;;;;;25.37;16.43;;;;;;;;;;5024466;28;20434;-79
2024/01/19 08:19:15;;;;;;;28.37;18.40;;;;;;;;;;5026913;28;20444;-79
2024/01/19 08:21:42;;;;;;;29.97;19.23;;;;;;;;;;5007375;28;20446;-79
2024/01/19 08:24:08;;;;;;;33.30;19.37;;;;;;;;;;5027120;28;20476;-79
2024/01/19 08:26:34;;;;;;;32.27;19.77;;;;;;;;;;5040170;28;20544;-79
2024/01/19 08:29:01;;;;;;;34.53;20.27;;;;;;;;;;5036692;28;20452;-79
2024/01/19 08:31:29;;;;;;;32.77;19.90;;;;;;;;;;5028576;28;20429;-79
2024/01/19 08:33:56;;;;;;;32.20;20.23;;;;;;;;;;5014260;28;20545;-79
2024/01/19 08:36:24;;;;;;;36.03;20.83;;;;;;;;;;5023842;28;20462;-78
2024/01/19 08:38:53;;;;;;;33.10;20.67;;;;;;;;;;5010130;28;20515;-80
2024/01/19 08:41:20;;;;;;;32.93;19.00;;;;;;;;;;5005994;28;20477;-82
2024/01/19 08:43:47;;;;;;;30.37;18.13;;;;;;;;;;5024824;28;21060;-82
2024/01/19 08:46:13;;;;;;;25.37;17.30;;;;;;;;;;5022838;28;20412;-82
2024/01/19 08:48:40;;;;;;;24.47;17.07;;;;;;;;;;5023417;28;20436;-78
2024/01/19 08:51:07;;;;;;;49.87;17.87;;;;;;;;;;5029674;28;20418;-78
2024/01/19 08:53:33;;;;;;;24.63;16.93;;;;;;;;;;5011520;28;20516;-78
2024/01/19 08:55:59;;;;;;;28.67;19.37;;;;;;;;;;4949946;28;20433;-79
2024/01/19 08:58:25;;;;;;;29.60;18.80;;;;;;;;;;4927210;28;20457;-79
2024/01/19 09:00:51;;;;;;;30.53;20.37;;;;;;;;;;4921613;28;20453;-79
2024/01/19 09:03:17;;;;;;;36.90;21.03;;;;;;;;;;5020602;28;20943;-79
2024/01/19 09:05:45;;;;;;;34.90;21.90;;;;;;;;;;4917432;28;20799;-78
2024/01/19 09:08:11;;;;;;;42.23;23.73;;;;;;;;;;4931779;28;20425;-78
2024/01/19 09:10:37;;;;;;;39.80;23.77;;;;;;;;;;4936198;28;20430;-78
2024/01/19 09:13:03;;;;;;;36.50;22.07;;;;;;;;;;4934270;28;21290;-78
2024/01/19 09:15:30;;;;;;;34.70;21.47;;;;;;;;;;5022597;28;20879;-77
2024/01/19 09:17:56;;;;;;;38.00;21.87;;;;;;;;;;4934586;28;20433;-81
2024/01/19 09:20:24;;;;;;;35.27;21.17;;;;;;;;;;4922809;28;20893;-76
2024/01/19 09:22:50;;;;;;;41.27;24.47;;;;;;;;;;4923751;28;20479;-81
2024/01/19 09:25:16;;;;;;;47.13;28.33;;;;;;;;;;4907843;28;20850;-79
2024/01/19 09:27:43;;;;;;;45.73;28.17;;;;;;;;;;4982563;28;20970;-75
2024/01/19 09:30:10;;;;;;;43.77;28.23;;;;;;;;;;4982370;28;20976;-78
2024/01/19 09:32:40;;;;;;;45.50;27.43;;;;;;;;;;4916560;28;20835;-82
2024/01/19 09:35:06;;;;;;;38.37;25.47;;;;;;;;;;4897691;28;20474;-86
2024/01/19 09:37:32;;;;;;;41.77;25.23;;;;;;;;;;4907099;28;20783;-87
2024/01/19 09:39:58;;;;;;;46.33;26.83;;;;;;;;;;5018546;28;20206;-87
2024/01/19 09:42:28;;;;;;;43.80;26.53;;;;;;;;;;5006747;28;20214;-87
2024/01/19 09:45:04;;;;;;;38.93;23.97;;;;;;;;;;4876352;28;20474;-87
2024/01/19 09:47:50;;;;;;;40.43;24.50;;;;;;;;;;4896256;28;20218;-87
2024/01/19 09:50:19;;;;;;;38.93;25.00;;;;;;;;;;4885531;28;20434;-79
2024/01/19 09:52:52;;;;;;;44.83;26.33;;;;;;;;;;4908227;28;20429;-86
2024/01/19 09:55:20;;;;;;;50.73;29.27;;;;;;;;;;4902455;28;20627;-84
2024/01/19 09:57:49;;;;;;;46.53;27.93;;;;;;;;;;4954734;28;20547;-83
2024/01/19 10:00:17;;;;;;;47.93;28.67;;;;;;;;;;4996194;28;21039;-86
2024/01/19 10:02:48;;;;;;;50.23;28.03;;;;;;;;;;5010708;28;20191;-86
2024/01/19 10:05:15;;;;;;;48.63;28.77;;;;;;;;;;4948783;28;20464;-85
2024/01/19 10:07:42;;;;;;;46.83;27.60;;;;;;;;;;4873665;28;20198;-86
2024/01/19 10:10:09;;;;;;;42.00;26.20;;;;;;;;;;4902187;28;21852;-85
2024/01/19 10:12:37;;;;;;;42.77;24.83;;;;;;;;;;5009508;28;20274;-86
2024/01/19 10:15:04;;;;;;;38.87;25.77;;;;;;;;;;4925018;28;20215;-87
2024/01/19 10:17:30;;;;;;;42.30;25.63;;;;;;;;;;4903547;28;20210;-86
2024/01/19 10:19:58;;;;;;;38.07;24.60;;;;;;;;;;4924831;28;20760;-85
2024/01/19 10:22:25;;;;;;;40.07;25.27;;;;;;;;;;4993470;28;20229;-86
2024/01/19 10:25:03;;;;;;;40.97;26.17;;;;;;;;;;4914133;28;20374;-83
2024/01/19 10:27:42;;;;;;;42.67;26.57;;;;;;;;;;5027994;28;20185;-86
2024/01/19 10:30:11;;;;;;;37.37;24.03;;;;;;;;;;5005005;28;20705;-86
2024/01/19 10:32:39;;;;;;;37.30;23.67;;;;;;;;;;4909641;28;20254;-85
2024/01/19 10:35:25;;;;;;;42.93;25.03;;;;;;;;;;4868978;28;20789;-85
2024/01/19 10:37:52;;;;;;;45.20;26.87;;;;;;;;;;4996696;28;20281;-86
2024/01/19 10:40:26;;;;;;;41.83;26.53;;;;;;;;;;4991313;28;20278;-81
2024/01/19 10:42:53;;;;;;;40.83;26.03;;;;;;;;;;4909652;28;20972;-83
2024/01/19 10:45:21;;;;;;;43.07;26.40;;;;;;;;;;5016000;28;20225;-88
2024/01/19 10:47:48;;;;;;;39.57;25.73;;;;;;;;;;4917556;28;20285;-83
2024/01/19 10:50:15;;;;;;;39.83;24.83;;;;;;;;;;4887569;28;20189;-88
2024/01/19 10:52:45;;;;;;;39.23;24.50;;;;;;;;;;4899549;28;20245;-86
2024/01/19 10:55:21;;;;;;;42.37;26.80;;;;;;;;;;4897815;28;20245;-86
2024/01/19 10:57:55;;;;;;;40.03;26.30;;;;;;;;;;4928773;28;20213;-84
2024/01/19 11:00:22;;;;;;;37.70;25.27;;;;;;;;;;5012591;28;20885;-87
2024/01/19 11:02:49;;;;;;;40.27;25.97;;;;;;;;;;4871409;28;20190;-86
2024/01/19 11:05:19;;;;;;;39.27;25.70;;;;;;;;;;5032865;28;20221;-86
2024/01/19 11:07:46;;;;;;;44.10;26.23;;;;;;;;;;4942004;28;20182;-86
2024/01/19 11:10:12;;;;;;;38.73;24.87;;;;;;;;;;4917783;28;20206;-85
2024/01/19 11:12:41;;;;;;;41.57;26.03;;;;;;;;;;5018715;28;20184;-86
2024/01/19 11:15:08;;;;;;;40.93;25.07;;;;;;;;;;4998801;28;20666;-85
2024/01/19 11:17:34;;;;;;;37.33;24.87;;;;;;;;;;4928818;28;20225;-85
2024/01/19 11:20:00;;;;;;;41.40;25.00;;;;;;;;;;4950161;28;20187;-86
2024/01/19 11:22:27;;;;;;;37.67;25.77;;;;;;;;;;4913137;28;20598;-83
2024/01/19 11:24:53;;;;;;;41.53;25.93;;;;;;;;;;4911862;28;20214;-86
2024/01/19 11:27:25;;;;;;;38.90;24.63;;;;;;;;;;5003380;28;20244;-78
2024/01/19 11:29:54;;;;;;;41.30;27.63;;;;;;;;;;4936028;28;20552;-85
2024/01/19 11:32:20;;;;;;;41.83;25.83;;;;;;;;;;4924006;28;20261;-86
2024/01/19 11:34:49;;;;;;;40.30;25.97;;;;;;;;;;4917385;28;20233;-80
2024/01/19 11:37:39;;;;;;;39.33;26.20;;;;;;;;;;4909314;28;20195;-79
2024/01/19 11:40:06;;;;;;;37.67;25.37;;;;;;;;;;4931560;28;21966;-79
2024/01/19 11:42:35;;;;;;;35.90;24.27;;;;;;;;;;5007607;28;20305;-74
2024/01/19 11:45:02;;;;;;;42.53;26.50;;;;;;;;;;4950585;28;20222;-80
2024/01/19 11:47:37;;;;;;;39.67;25.53;;;;;;;;;;4901459;28;20193;-89
2024/01/19 11:50:04;;;;;;;37.73;25.30;;;;;;;;;;4942007;28;20183;-81
2024/01/19 11:52:35;;;;;;;40.23;25.50;;;;;;;;;;4907714;28;20194;-78
2024/01/19 11:55:19;;;;;;;39.17;25.30;;;;;;;;;;4942978;28;21653;-83
2024/01/19 11:57:45;;;;;;;36.70;24.80;;;;;;;;;;4977929;28;20268;-80
2024/01/19 12:00:12;;;;;;;35.17;24.57;;;;;;;;;;4976465;28;20572;-83
2024/01/19 12:02:39;;;;;;;39.17;25.50;;;;;;;;;;5029994;28;20198;-79
2024/01/19 12:05:09;;;;;;;36.87;24.73;;;;;;;;;;4932872;28;20226;-80
2024/01/19 12:07:36;;;;;;;38.47;26.23;;;;;;;;;;4987848;28;20186;-82
2024/01/19 12:10:09;;;;;;;37.90;24.87;;;;;;;;;;4945794;28;21792;-79
2024/01/19 12:12:36;;;;;;;35.67;23.07;;;;;;;;;;5015917;28;20191;-77
2024/01/19 12:15:06;;;;;;;43.80;29.47;;;;;;;;;;4960826;28;20702;-80
2024/01/19 12:17:32;;;;;;;36.50;25.30;;;;;;;;;;4959013;28;20240;-76
2024/01/19 12:19:58;;;;;;;42.10;25.23;;;;;;;;;;4950795;28;20198;-77
2024/01/19 12:22:24;;;;;;;38.23;24.70;;;;;;;;;;4944119;28;20187;-77
2024/01/19 12:24:51;;;;;;;47.03;29.87;;;;;;;;;;4941929;28;20218;-80
2024/01/19 12:27:17;;;;;;;38.60;24.77;;;;;;;;;;5028443;28;20637;-77
2024/01/19 12:29:44;;;;;;;36.90;25.43;;;;;;;;;;4933287;28;20198;-77
2024/01/19 12:32:10;;;;;;;42.47;25.97;;;;;;;;;;4932855;28;20198;-77
2024/01/19 12:34:37;;;;;;;37.77;25.03;;;;;;;;;;4950281;28;20225;-77
2024/01/19 12:37:03;;;;;;;41.50;25.37;;;;;;;;;;4944876;28;22192;-77
2024/01/19 12:39:30;;;;;;;36.57;24.20;;;;;;;;;;5024151;28;20183;-77
2024/01/19 12:42:04;;;;;;;36.13;24.13;;;;;;;;;;4896627;28;20665;-77
2024/01/19 12:44:31;;;;;;;37.53;25.53;;;;;;;;;;4906332;28;20221;-77
2024/01/19 12:47:00;;;;;;;36.63;24.87;;;;;;;;;;4914343;28;20555;-77
2024/01/19 12:49:27;;;;;;;37.33;23.57;;;;;;;;;;4874977;28;20205;-78
2024/01/19 12:51:54;;;;;;;36.27;25.43;;;;;;;;;;4898312;28;20178;-77
2024/01/19 12:54:20;;;;;;;34.90;23.03;;;;;;;;;;5019849;28;20206;-77
2024/01/19 12:56:48;;;;;;;34.13;23.53;;;;;;;;;;4886548;28;20258;-76
2024/01/19 12:59:21;;;;;;;35.20;24.87;;;;;;;;;;4698290;28;20737;-75
2024/01/19 13:01:49;;;;;;;39.13;24.60;;;;;;;;;;4821572;28;21681;-75
2024/01/19 13:04:16;;;;;;;39.63;25.70;;;;;;;;;;4884045;28;20584;-76
2024/01/19 13:06:43;;;;;;;39.07;25.87;;;;;;;;;;4831910;28;20194;-77
2024/01/19 13:09:10;;;;;;;37.27;25.13;;;;;;;;;;4816876;28;20580;-75
2024/01/19 13:11:36;;;;;;;37.10;24.67;;;;;;;;;;4814447;28;20182;-74
2024/01/19 13:14:03;;;;;;;36.83;24.53;;;;;;;;;;4832070;28;20213;-74
2024/01/19 13:16:30;;;;;;;35.93;25.33;;;;;;;;;;4869892;28;20190;-75
2024/01/19 13:19:00;;;;;;;39.23;24.83;;;;;;;;;;4979250;28;20230;-74
2024/01/19 13:21:26;;;;;;;34.60;23.37;;;;;;;;;;4926712;28;20285;-74
2024/01/19 13:23:52;;;;;;;39.20;26.03;;;;;;;;;;4922995;28;20254;-74
2024/01/19 13:26:19;;;;;;;34.00;23.70;;;;;;;;;;4829001;28;20202;-74
2024/01/19 13:28:46;;;;;;;36.47;23.93;;;;;;;;;;4803597;28;23025;-75
2024/01/19 13:31:14;;;;;;;35.57;23.10;;;;;;;;;;4908741;28;20257;-74
2024/01/19 13:33:44;;;;;;;37.83;24.17;;;;;;;;;;4845032;28;20546;-73
2024/01/19 13:36:14;;;;;;;33.73;22.63;;;;;;;;;;4808558;28;20186;-74
2024/01/19 13:38:40;;;;;;;35.17;23.40;;;;;;;;;;4871785;28;20190;-75
2024/01/19 13:41:07;;;;;;;34.93;23.37;;;;;;;;;;5028490;28;20228;-75
2024/01/19 13:43:34;;;;;;;34.77;21.33;;;;;;;;;;5016645;28;20317;-75
2024/01/19 13:46:01;;;;;;;37.07;23.10;;;;;;;;;;4993451;28;20575;-74
2024/01/19 13:48:27;;;;;;;34.17;23.10;;;;;;;;;;4919901;28;20658;-75
2024/01/19 13:50:53;;;;;;;36.17;24.27;;;;;;;;;;4875943;28;20205;-75
2024/01/19 13:53:20;;;;;;;33.03;22.27;;;;;;;;;;4855004;28;20190;-75
2024/01/19 13:55:46;;;;;;;34.07;22.03;;;;;;;;;;4863328;28;20216;-75
2024/01/19 13:58:12;;;;;;;35.73;23.00;;;;;;;;;;4876171;28;21164;-75
2024/01/19 14:00:39;;;;;;;38.70;23.67;;;;;;;;;;4908036;28;20264;-73
2024/01/19 14:03:07;;;;;;;32.73;22.17;;;;;;;;;;4839462;28;20697;-74
2024/01/19 14:05:34;;;;;;;31.83;22.10;;;;;;;;;;4773828;28;20292;-74
2024/01/19 14:08:03;;;;;;;34.33;22.87;;;;;;;;;;4742783;28;20207;-74
2024/01/19 14:10:30;;;;;;;33.23;21.77;;;;;;;;;;4935309;28;20178;-75
2024/01/19 14:12:58;;;;;;;34.73;23.30;;;;;;;;;;4986422;28;20190;-74
2024/01/19 14:15:24;;;;;;;32.60;22.00;;;;;;;;;;5030961;28;20220;-74